Impacts TAF Board INFO
FOR SITUATIONAL AWARENESS. NOT TO BE USED FOR FLIGHT PLANNING PURPOSES.
IDs:

KBOS - Boston/Logan Intl, MA, US

Issued at 2322 UTC 17 Aug 2018
Updated at 0126 UTC 18 Aug 2018
Potential Impact None Slight Moderate High
Time0054Z 18/02Z 18/03Z 18/04Z 18/05Z 18/06Z 18/07Z 18/08Z 18/09Z 18/10Z 18/11Z 18/12Z 18/13Z 18/14Z>>
Type OBS PRVL PRVL PRVL PRVL PRVL PRVL PRVL PRVL PRVL PRVL PRVL PRVL PRVL
VIS 8 5 5 >6 >6 >6 >6 >6 >6 5 5 5 5 5
CIG 220 40 40 100 100 100 100 100 100 50 50 50 50 50
Cover OVC OVC OVC OVC OVC OVC OVC OVC OVC OVC OVC OVC OVC OVC
FltCat VFR MVFR MVFR VFR VFR VFR VFR VFR VFR MVFR MVFR MVFR MVFR MVFR
WX -- -SHRA VCTS -SHRA VCTS -- -- -- -- -- -- BR VCSH BR VCSH BR VCSH BR VCSH BR VCSH
WDir 200 180 180 210 210 210 210 210 210 220 220 220 220 220
WSpd 9 10 10 10 10 10 10 10 10 10 10 10 10 10
WGst -- -- -- -- -- -- -- -- -- -- -- -- -- --

Raw TAF
KBOS 172322Z 1800/1906 13005KT 6SM BR SCT035 BKN120
  FM180200 18010KT 5SM -SHRA VCTS OVC040CB
  FM180400 21010KT P6SM OVC100
  FM181000 22010KT 5SM BR VCSH OVC050
  FM181500 24007KT P6SM VCSH OVC050
  FM182100 31007KT 6SM -SHRA OVC050
  FM182300 35008KT P6SM OVC050
  FM190400 03008KT P6SM VCSH OVC015


Raw METAR
KBOS 180054Z COR 20009KT 8SM FEW090 FEW110 SCT150 OVC220 26/22 A2994 RMK AO2 SLP139 T02560222 $
KBOS 172354Z 16004KT 6SM BR FEW035 FEW080 BKN130 OVC200 23/21 A2994 RMK AO2 RAE08 TSE08 SLP137 P0000 60020 T02280211 10256 20228 56012 $
KBOS 172308Z 12004KT 6SM BR FEW034CB BKN130 BKN200 24/22 A2994 RMK AO2 RAE08 TSE08 CB DSNT NE-E P0000 T02390217 $
KBOS 172254Z 11005KT 6SM -TSRA BR SCT034CB SCT085 BKN200 24/22 A2994 RMK AO2 TSB00 SLP138 OCNL LTGICCCCCG TS N-NE MOV NE VIS N-NE 2 P0014 T02390217 $
KBOS 172236Z 29007KT 260V330 5SM -TSRA BR FEW007 SCT034CB BKN085 BKN200 23/21 A2996 RMK AO2 TSB00 OCNL LTGICCCCCG TS N-NE MOV NE VIS N-NE 2 P0014 T02330211 $

METAR Board
Radar Display
Forecast Discussion

FOR SITUATIONAL AWARENESS. NOT TO BE USED FOR FLIGHT PLANNING PURPOSES.